NKS6643 KHOU-KMIA
Flight info
| Callsign | NKS6643 |
|---|---|
| Flight time | N/A |
| Altitude | 37000 |
| Route | ELOCO6 LLA LEV Y290 GAWKS FROGZ4 |
| Aircraft | A320/M-SDE3FGHIRWY/LB1 |
Departure
| Time | 2026-05-05 15:15 |
|---|---|
| Airport | William P. Hobby Airport (KHOU) |
Arrival
| Time | N/A |
|---|---|
| Airport | Miami International Airport (KMIA) |
| Time | Latitude | Longitude | Altitude | Speed | Heading |
|---|---|---|---|---|---|
| 2026-05-05 14:48 | 29.65302 | -95.27800 | 52 ft | 0 kts | 157° |
| 2026-05-05 15:07 | 29.65311 | -95.27804 | 52 ft | 4 kts | 157° |
| 2026-05-05 15:08 | 29.65336 | -95.27814 | 48 ft | 4 kts | 181° |
| 2026-05-05 15:08 | 29.65358 | -95.27805 | 52 ft | 4 kts | 234° |
| 2026-05-05 15:08 | 29.65364 | -95.27791 | 52 ft | 1 kts | 248° |
| 2026-05-05 15:08 | 29.65365 | -95.27790 | 52 ft | 2 kts | 248° |
| 2026-05-05 15:12 | 29.65362 | -95.27799 | 52 ft | 6 kts | 248° |
| 2026-05-05 15:12 | 29.65333 | -95.27885 | 52 ft | 17 kts | 250° |
| 2026-05-05 15:12 | 29.65280 | -95.28017 | 52 ft | 14 kts | 283° |
| 2026-05-05 15:13 | 29.65339 | -95.28145 | 52 ft | 21 kts | 264° |
| 2026-05-05 15:13 | 29.65282 | -95.28339 | 49 ft | 18 kts | 238° |
| 2026-05-05 15:13 | 29.65276 | -95.28345 | 49 ft | 0 kts | 218° |
| 2026-05-05 15:14 | 29.65264 | -95.28355 | 52 ft | 6 kts | 212° |
| 2026-05-05 15:14 | 29.65241 | -95.28352 | 52 ft | 0 kts | 158° |
| 2026-05-05 15:14 | 29.65201 | -95.28316 | 52 ft | 40 kts | 136° |
| 2026-05-05 15:15 | 29.64712 | -95.27738 | 49 ft | 153 kts | 133° |
| 2026-05-05 15:15 | 29.63682 | -95.27146 | 742 ft | 172 kts | 166° |
| 2026-05-05 15:15 | 29.62724 | -95.26249 | 1887 ft | 199 kts | 126° |
| 2026-05-05 15:15 | 29.62378 | -95.25201 | 2321 ft | 225 kts | 109° |
| 2026-05-05 15:16 | 29.62257 | -95.24465 | 2655 ft | 237 kts | 104° |
| 2026-05-05 15:16 | 29.62064 | -95.22480 | 3461 ft | 264 kts | 100° |
| 2026-05-05 15:16 | 29.61885 | -95.20340 | 4393 ft | 280 kts | 100° |
| 2026-05-05 15:16 | 29.61651 | -95.18100 | 4795 ft | 283 kts | 102° |
| 2026-05-05 15:17 | 29.61346 | -95.15872 | 4985 ft | 283 kts | 104° |
| 2026-05-05 15:17 | 29.60965 | -95.13602 | 5721 ft | 293 kts | 104° |
| 2026-05-05 15:17 | 29.60542 | -95.11316 | 6957 ft | 295 kts | 105° |
| 2026-05-05 15:17 | 29.60093 | -95.08993 | 8072 ft | 301 kts | 105° |
| 2026-05-05 15:18 | 29.59623 | -95.06621 | 9196 ft | 308 kts | 104° |
| 2026-05-05 15:18 | 29.59168 | -95.04188 | 10196 ft | 317 kts | 99° |
| 2026-05-05 15:18 | 29.59062 | -95.01566 | 10755 ft | 339 kts | 84° |
| 2026-05-05 15:18 | 29.59521 | -94.98920 | 11581 ft | 346 kts | 70° |
| 2026-05-05 15:19 | 29.60274 | -94.96263 | 12510 ft | 352 kts | 69° |
| 2026-05-05 15:19 | 29.61030 | -94.93559 | 13409 ft | 360 kts | 68° |
| 2026-05-05 15:19 | 29.61792 | -94.90793 | 14229 ft | 367 kts | 68° |
| 2026-05-05 15:19 | 29.62566 | -94.87971 | 15017 ft | 374 kts | 69° |
| 2026-05-05 15:20 | 29.63310 | -94.85077 | 15785 ft | 383 kts | 74° |
| 2026-05-05 15:20 | 29.63663 | -94.82006 | 16544 ft | 393 kts | 86° |
| 2026-05-05 15:20 | 29.63713 | -94.78880 | 17314 ft | 400 kts | 88° |
| 2026-05-05 15:20 | 29.63764 | -94.75662 | 18102 ft | 406 kts | 88° |
| 2026-05-05 15:21 | 29.63821 | -94.72386 | 18801 ft | 413 kts | 88° |
| 2026-05-05 15:21 | 29.63882 | -94.69065 | 19489 ft | 419 kts | 87° |
| 2026-05-05 15:21 | 29.63948 | -94.65690 | 20172 ft | 426 kts | 87° |
| 2026-05-05 15:21 | 29.64016 | -94.62254 | 20844 ft | 433 kts | 86° |
| 2026-05-05 15:22 | 29.64085 | -94.58774 | 21500 ft | 439 kts | 86° |
| 2026-05-05 15:22 | 29.64157 | -94.55237 | 22149 ft | 446 kts | 86° |
| 2026-05-05 15:22 | 29.64228 | -94.51654 | 22795 ft | 452 kts | 86° |
| 2026-05-05 15:22 | 29.64294 | -94.48059 | 23431 ft | 458 kts | 86° |
| 2026-05-05 15:23 | 29.64357 | -94.44377 | 23975 ft | 464 kts | 86° |
| 2026-05-05 15:23 | 29.64418 | -94.40643 | 24560 ft | 469 kts | 86° |
| 2026-05-05 15:23 | 29.64477 | -94.36885 | 25141 ft | 473 kts | 86° |
| 2026-05-05 15:23 | 29.64539 | -94.33088 | 25715 ft | 477 kts | 86° |
| 2026-05-05 15:24 | 29.64602 | -94.29263 | 26299 ft | 481 kts | 86° |
| 2026-05-05 15:24 | 29.64666 | -94.25400 | 26872 ft | 485 kts | 86° |
| 2026-05-05 15:24 | 29.64728 | -94.21566 | 27429 ft | 489 kts | 86° |
| 2026-05-05 15:24 | 29.64789 | -94.17636 | 27994 ft | 493 kts | 86° |
| 2026-05-05 15:25 | 29.64847 | -94.13681 | 28551 ft | 497 kts | 86° |
| 2026-05-05 15:25 | 29.64903 | -94.09686 | 29106 ft | 502 kts | 86° |
| 2026-05-05 15:25 | 29.64962 | -94.05662 | 29665 ft | 506 kts | 86° |
| 2026-05-05 15:25 | 29.65023 | -94.01607 | 30190 ft | 510 kts | 86° |
| 2026-05-05 15:26 | 29.65081 | -93.97508 | 30677 ft | 514 kts | 86° |
| 2026-05-05 15:26 | 29.65135 | -93.93389 | 31185 ft | 518 kts | 86° |
| 2026-05-05 15:26 | 29.65186 | -93.89290 | 31682 ft | 521 kts | 86° |
| 2026-05-05 15:26 | 29.65240 | -93.85122 | 32346 ft | 520 kts | 86° |
| 2026-05-05 15:27 | 29.65291 | -93.80975 | 33112 ft | 518 kts | 86° |
| 2026-05-05 15:27 | 29.65341 | -93.76843 | 33908 ft | 515 kts | 86° |
| 2026-05-05 15:27 | 29.65390 | -93.72741 | 34568 ft | 513 kts | 86° |
| 2026-05-05 15:27 | 29.65439 | -93.68652 | 35173 ft | 512 kts | 86° |
| 2026-05-05 15:28 | 29.65487 | -93.64562 | 35725 ft | 511 kts | 86° |
| 2026-05-05 15:28 | 29.65534 | -93.60483 | 36290 ft | 510 kts | 86° |
| 2026-05-05 15:28 | 29.65580 | -93.56404 | 36807 ft | 511 kts | 86° |
| 2026-05-05 15:28 | 29.65626 | -93.52368 | 37010 ft | 511 kts | 86° |
| 2026-05-05 15:29 | 29.65669 | -93.48295 | 36958 ft | 507 kts | 86° |
| 2026-05-05 15:29 | 29.65739 | -93.40267 | 36957 ft | 501 kts | 86° |
| 2026-05-05 15:30 | 29.65814 | -93.32228 | 36962 ft | 510 kts | 86° |
| 2026-05-05 15:30 | 29.65856 | -93.28114 | 36961 ft | 521 kts | 86° |
| 2026-05-05 15:30 | 29.65897 | -93.23967 | 36975 ft | 531 kts | 86° |
| 2026-05-05 15:31 | 29.65972 | -93.15356 | 36959 ft | 543 kts | 87° |
| 2026-05-05 15:31 | 29.66030 | -93.06655 | 36962 ft | 545 kts | 87° |
| 2026-05-05 15:32 | 29.66081 | -92.97954 | 36967 ft | 544 kts | 87° |
| 2026-05-05 15:32 | 29.66130 | -92.89318 | 36971 ft | 544 kts | 87° |
| 2026-05-05 15:33 | 29.66177 | -92.80624 | 36971 ft | 544 kts | 87° |
| 2026-05-05 15:33 | 29.66223 | -92.71930 | 36971 ft | 544 kts | 87° |
| 2026-05-05 15:34 | 29.66256 | -92.63239 | 36977 ft | 544 kts | 87° |
| 2026-05-05 15:34 | 29.66284 | -92.54589 | 36974 ft | 545 kts | 87° |
| 2026-05-05 15:35 | 29.66312 | -92.45878 | 36973 ft | 545 kts | 87° |
| 2026-05-05 15:35 | 29.66139 | -92.37154 | 36972 ft | 548 kts | 96° |
| 2026-05-05 15:36 | 29.64522 | -92.28596 | 36987 ft | 549 kts | 103° |
| 2026-05-05 15:36 | 29.62749 | -92.20057 | 36981 ft | 549 kts | 103° |
| 2026-05-05 15:37 | 29.60994 | -92.11581 | 36986 ft | 549 kts | 103° |
| 2026-05-05 15:37 | 29.59225 | -92.03029 | 36987 ft | 550 kts | 103° |
| 2026-05-05 15:38 | 29.57438 | -91.94495 | 36998 ft | 549 kts | 103° |
| 2026-05-05 15:38 | 29.55643 | -91.85963 | 36993 ft | 550 kts | 103° |
| 2026-05-05 15:39 | 29.53859 | -91.77489 | 36987 ft | 550 kts | 103° |
| 2026-05-05 15:39 | 29.52060 | -91.68944 | 36966 ft | 550 kts | 103° |
| 2026-05-05 15:40 | 29.50264 | -91.60436 | 36999 ft | 548 kts | 103° |
| 2026-05-05 15:40 | 29.48457 | -91.51933 | 37006 ft | 547 kts | 103° |
| 2026-05-05 15:41 | 29.46663 | -91.43510 | 36995 ft | 548 kts | 103° |
| 2026-05-05 15:41 | 29.44848 | -91.35012 | 37000 ft | 548 kts | 103° |
| 2026-05-05 15:42 | 29.43034 | -91.26519 | 37001 ft | 548 kts | 103° |
| 2026-05-05 15:42 | 29.41204 | -91.18023 | 36998 ft | 549 kts | 103° |
| 2026-05-05 15:43 | 29.39368 | -91.09533 | 36999 ft | 549 kts | 103° |
| 2026-05-05 15:43 | 29.37544 | -91.01080 | 36994 ft | 550 kts | 103° |
| 2026-05-05 15:44 | 29.35693 | -90.92553 | 36994 ft | 551 kts | 103° |
| 2026-05-05 15:44 | 29.33837 | -90.84036 | 36997 ft | 551 kts | 103° |
| 2026-05-05 15:45 | 29.31975 | -90.75510 | 37014 ft | 552 kts | 103° |
| 2026-05-05 15:45 | 29.30108 | -90.67033 | 37010 ft | 552 kts | 103° |
| 2026-05-05 15:46 | 29.28230 | -90.58506 | 37012 ft | 552 kts | 103° |
| 2026-05-05 15:46 | 29.26352 | -90.49969 | 37019 ft | 553 kts | 103° |
| 2026-05-05 15:47 | 29.24467 | -90.41440 | 37005 ft | 553 kts | 103° |
| 2026-05-05 15:47 | 29.22581 | -90.32979 | 37027 ft | 552 kts | 103° |
| 2026-05-05 15:48 | 29.20674 | -90.24471 | 37037 ft | 552 kts | 103° |
| 2026-05-05 15:48 | 29.18774 | -90.15966 | 37040 ft | 552 kts | 103° |
| 2026-05-05 15:49 | 29.16495 | -90.07596 | 37037 ft | 551 kts | 113° |
| 2026-05-05 15:49 | 29.13498 | -89.99586 | 37046 ft | 552 kts | 114° |
| 2026-05-05 15:50 | 29.10468 | -89.91516 | 37044 ft | 552 kts | 113° |
| 2026-05-05 15:50 | 29.07442 | -89.83459 | 37046 ft | 552 kts | 113° |
| 2026-05-05 15:51 | 29.04413 | -89.75398 | 37041 ft | 552 kts | 113° |
| 2026-05-05 15:51 | 29.01385 | -89.67343 | 37053 ft | 552 kts | 113° |
| 2026-05-05 15:52 | 28.98372 | -89.59350 | 37047 ft | 552 kts | 113° |
| 2026-05-05 15:52 | 28.95326 | -89.51303 | 37024 ft | 552 kts | 114° |
| 2026-05-05 15:53 | 28.92280 | -89.43279 | 37042 ft | 551 kts | 114° |
| 2026-05-05 15:53 | 28.89232 | -89.35259 | 37058 ft | 551 kts | 114° |
| 2026-05-05 15:54 | 28.86185 | -89.27246 | 37060 ft | 550 kts | 114° |
| 2026-05-05 15:54 | 28.83158 | -89.19295 | 37066 ft | 550 kts | 113° |
| 2026-05-05 15:55 | 28.80099 | -89.11294 | 37065 ft | 550 kts | 114° |
| 2026-05-05 15:55 | 28.77036 | -89.03309 | 37063 ft | 550 kts | 114° |
| 2026-05-05 15:56 | 28.73989 | -88.95375 | 37062 ft | 550 kts | 114° |
| 2026-05-05 15:56 | 28.70922 | -88.87393 | 37064 ft | 550 kts | 114° |
| 2026-05-05 15:57 | 28.67852 | -88.79413 | 37065 ft | 550 kts | 113° |
| 2026-05-05 15:57 | 28.64769 | -88.71434 | 37052 ft | 550 kts | 113° |
| 2026-05-05 15:58 | 28.61692 | -88.63479 | 37065 ft | 549 kts | 113° |
| 2026-05-05 15:58 | 28.58631 | -88.55585 | 37072 ft | 549 kts | 114° |
| 2026-05-05 15:59 | 28.55540 | -88.47648 | 37074 ft | 548 kts | 114° |
| 2026-05-05 15:59 | 28.52452 | -88.39722 | 37075 ft | 549 kts | 113° |
| 2026-05-05 16:00 | 28.49358 | -88.31795 | 37076 ft | 549 kts | 113° |
| 2026-05-05 16:00 | 28.46277 | -88.23921 | 37077 ft | 548 kts | 114° |
| 2026-05-05 16:01 | 28.43175 | -88.16007 | 37077 ft | 548 kts | 113° |
| 2026-05-05 16:01 | 28.40072 | -88.08098 | 37076 ft | 548 kts | 113° |
| 2026-05-05 16:02 | 28.37261 | -88.00067 | 37080 ft | 546 kts | 106° |
| 2026-05-05 16:02 | 28.34925 | -87.91919 | 37056 ft | 546 kts | 106° |
| 2026-05-05 16:03 | 28.32562 | -87.83739 | 37075 ft | 545 kts | 106° |
| 2026-05-05 16:03 | 28.30190 | -87.75563 | 37078 ft | 545 kts | 106° |
| 2026-05-05 16:04 | 28.27824 | -87.67399 | 37085 ft | 544 kts | 106° |
| 2026-05-05 16:04 | 28.25464 | -87.59308 | 37083 ft | 544 kts | 106° |
| 2026-05-05 16:05 | 28.23085 | -87.51166 | 37082 ft | 544 kts | 106° |
| 2026-05-05 16:05 | 28.20708 | -87.43029 | 37077 ft | 544 kts | 106° |
| 2026-05-05 16:06 | 28.18333 | -87.34896 | 37078 ft | 543 kts | 106° |
| 2026-05-05 16:06 | 28.15950 | -87.26769 | 37076 ft | 543 kts | 106° |
| 2026-05-05 16:07 | 28.13572 | -87.18709 | 37075 ft | 543 kts | 106° |
| 2026-05-05 16:07 | 28.11172 | -87.10602 | 37075 ft | 543 kts | 106° |
| 2026-05-05 16:08 | 28.08776 | -87.02495 | 37074 ft | 542 kts | 106° |
| 2026-05-05 16:08 | 28.06401 | -86.94455 | 37096 ft | 542 kts | 106° |
| 2026-05-05 16:09 | 28.03985 | -86.86364 | 37084 ft | 543 kts | 106° |
| 2026-05-05 16:09 | 28.01565 | -86.78279 | 37059 ft | 542 kts | 106° |
| 2026-05-05 16:10 | 27.99175 | -86.70195 | 37064 ft | 542 kts | 106° |
| 2026-05-05 16:10 | 27.96861 | -86.62150 | 37075 ft | 541 kts | 105° |
| 2026-05-05 16:11 | 27.94541 | -86.54046 | 37084 ft | 541 kts | 105° |
| 2026-05-05 16:12 | 27.89837 | -86.37874 | 37072 ft | 542 kts | 106° |
| 2026-05-05 16:13 | 27.83940 | -86.17709 | 37111 ft | 542 kts | 105° |
| 2026-05-05 16:13 | 27.81566 | -86.09627 | 37099 ft | 542 kts | 105° |
| 2026-05-05 16:14 | 27.76784 | -85.93460 | 37088 ft | 543 kts | 105° |
| 2026-05-05 16:15 | 27.72015 | -85.77354 | 37080 ft | 543 kts | 105° |
| 2026-05-05 16:16 | 27.67207 | -85.61197 | 37082 ft | 543 kts | 105° |
| 2026-05-05 16:17 | 27.63595 | -85.49146 | 37083 ft | 544 kts | 106° |
| 2026-05-05 16:18 | 27.59962 | -85.37030 | 37092 ft | 544 kts | 105° |
| 2026-05-05 16:19 | 27.57492 | -85.24673 | 37087 ft | 539 kts | 96° |
| 2026-05-05 16:19 | 27.55340 | -85.12298 | 37085 ft | 539 kts | 97° |
| 2026-05-05 16:20 | 27.52438 | -84.95743 | 37094 ft | 538 kts | 96° |
| 2026-05-05 16:22 | 27.48785 | -84.75122 | 37098 ft | 538 kts | 97° |
| 2026-05-05 16:23 | 27.45839 | -84.58590 | 37091 ft | 538 kts | 96° |
| 2026-05-05 16:23 | 27.43636 | -84.46289 | 37086 ft | 537 kts | 96° |
| 2026-05-05 16:24 | 27.42145 | -84.38049 | 37084 ft | 537 kts | 97° |
| 2026-05-05 16:25 | 27.39905 | -84.25703 | 37106 ft | 537 kts | 96° |
| 2026-05-05 16:25 | 27.37662 | -84.13418 | 37091 ft | 537 kts | 96° |
| 2026-05-05 16:26 | 27.34662 | -83.96952 | 37091 ft | 537 kts | 96° |
| 2026-05-05 16:27 | 27.33143 | -83.88728 | 37095 ft | 537 kts | 97° |
| 2026-05-05 16:27 | 27.31626 | -83.80560 | 37103 ft | 537 kts | 96° |
| 2026-05-05 16:28 | 27.30104 | -83.72342 | 37100 ft | 537 kts | 96° |
| 2026-05-05 16:28 | 27.28578 | -83.64122 | 37098 ft | 537 kts | 97° |
| 2026-05-05 16:29 | 27.27055 | -83.55919 | 37100 ft | 536 kts | 97° |
| 2026-05-05 16:29 | 27.25515 | -83.47710 | 37101 ft | 536 kts | 96° |
| 2026-05-05 16:30 | 27.23984 | -83.39571 | 37093 ft | 536 kts | 96° |
| 2026-05-05 16:30 | 27.22440 | -83.31381 | 37097 ft | 536 kts | 97° |
| 2026-05-05 16:31 | 27.20888 | -83.23184 | 37090 ft | 536 kts | 96° |
| 2026-05-05 16:31 | 27.19339 | -83.14991 | 37110 ft | 537 kts | 96° |
| 2026-05-05 16:32 | 27.17772 | -83.06794 | 37107 ft | 537 kts | 96° |
| 2026-05-05 16:32 | 27.16216 | -82.98654 | 37098 ft | 537 kts | 96° |
| 2026-05-05 16:33 | 27.14650 | -82.90455 | 37087 ft | 537 kts | 96° |
| 2026-05-05 16:33 | 27.12410 | -82.82436 | 37080 ft | 546 kts | 113° |
| 2026-05-05 16:34 | 27.08487 | -82.75090 | 37091 ft | 549 kts | 119° |
| 2026-05-05 16:34 | 27.04494 | -82.67837 | 37077 ft | 550 kts | 119° |
| 2026-05-05 16:35 | 27.00482 | -82.60539 | 37077 ft | 550 kts | 119° |
| 2026-05-05 16:35 | 26.97143 | -82.54473 | 37056 ft | 551 kts | 119° |
| 2026-05-05 16:36 | 26.93105 | -82.47182 | 37081 ft | 551 kts | 122° |
| 2026-05-05 16:36 | 26.87013 | -82.39927 | 37012 ft | 548 kts | 140° |
| 2026-05-05 16:37 | 26.81350 | -82.34507 | 36590 ft | 526 kts | 140° |
| 2026-05-05 16:37 | 26.79515 | -82.32750 | 36332 ft | 522 kts | 140° |
| 2026-05-05 16:37 | 26.76768 | -82.30119 | 35907 ft | 518 kts | 140° |
| 2026-05-05 16:38 | 26.74039 | -82.27506 | 35462 ft | 514 kts | 140° |
| 2026-05-05 16:38 | 26.71334 | -82.24918 | 35036 ft | 510 kts | 140° |
| 2026-05-05 16:38 | 26.68645 | -82.22346 | 34608 ft | 507 kts | 140° |
| 2026-05-05 16:38 | 26.65981 | -82.19799 | 34158 ft | 503 kts | 140° |
| 2026-05-05 16:39 | 26.63333 | -82.17269 | 33678 ft | 498 kts | 140° |
| 2026-05-05 16:39 | 26.60717 | -82.14768 | 33245 ft | 492 kts | 140° |
| 2026-05-05 16:39 | 26.58161 | -82.12328 | 32816 ft | 487 kts | 140° |
| 2026-05-05 16:39 | 26.55591 | -82.09881 | 32386 ft | 482 kts | 141° |
| 2026-05-05 16:40 | 26.53052 | -82.07463 | 31970 ft | 478 kts | 140° |
| 2026-05-05 16:40 | 26.50557 | -82.05043 | 31559 ft | 473 kts | 140° |
| 2026-05-05 16:40 | 26.48117 | -82.02602 | 31152 ft | 468 kts | 139° |
| 2026-05-05 16:40 | 26.45726 | -82.00164 | 30740 ft | 462 kts | 139° |
| 2026-05-05 16:41 | 26.43380 | -81.97758 | 29997 ft | 455 kts | 139° |
| 2026-05-05 16:41 | 26.41066 | -81.95388 | 29151 ft | 448 kts | 139° |
| 2026-05-05 16:41 | 26.38778 | -81.93064 | 28337 ft | 441 kts | 140° |
| 2026-05-05 16:41 | 26.36549 | -81.90819 | 27544 ft | 435 kts | 140° |
| 2026-05-05 16:42 | 26.34312 | -81.88579 | 26738 ft | 429 kts | 140° |
| 2026-05-05 16:42 | 26.32106 | -81.86374 | 25970 ft | 423 kts | 140° |
| 2026-05-05 16:42 | 26.29938 | -81.84203 | 25236 ft | 416 kts | 140° |
| 2026-05-05 16:42 | 26.27799 | -81.82059 | 24493 ft | 410 kts | 141° |
| 2026-05-05 16:43 | 26.25701 | -81.79938 | 23779 ft | 405 kts | 138° |
| 2026-05-05 16:43 | 26.23854 | -81.77586 | 22951 ft | 402 kts | 127° |
| 2026-05-05 16:43 | 26.22415 | -81.74982 | 22141 ft | 398 kts | 116° |
| 2026-05-05 16:43 | 26.21223 | -81.72228 | 21335 ft | 393 kts | 115° |
| 2026-05-05 16:44 | 26.20045 | -81.69504 | 20564 ft | 388 kts | 115° |
| 2026-05-05 16:44 | 26.18881 | -81.66822 | 19830 ft | 382 kts | 115° |
| 2026-05-05 16:44 | 26.17728 | -81.64174 | 19115 ft | 378 kts | 115° |
| 2026-05-05 16:44 | 26.16588 | -81.61559 | 18421 ft | 373 kts | 115° |
| 2026-05-05 16:45 | 26.15461 | -81.58973 | 17650 ft | 369 kts | 115° |
| 2026-05-05 16:45 | 26.14349 | -81.56426 | 16923 ft | 363 kts | 116° |
| 2026-05-05 16:45 | 26.13255 | -81.53925 | 16219 ft | 357 kts | 116° |
| 2026-05-05 16:45 | 26.12177 | -81.51458 | 15540 ft | 351 kts | 116° |
| 2026-05-05 16:46 | 26.11133 | -81.49069 | 14888 ft | 346 kts | 117° |
| 2026-05-05 16:46 | 26.10090 | -81.46682 | 14251 ft | 340 kts | 117° |
| 2026-05-05 16:46 | 26.09066 | -81.44337 | 13592 ft | 335 kts | 117° |
| 2026-05-05 16:46 | 26.08054 | -81.42023 | 12894 ft | 329 kts | 117° |
| 2026-05-05 16:47 | 26.07061 | -81.39755 | 12220 ft | 324 kts | 117° |
| 2026-05-05 16:47 | 26.06084 | -81.37519 | 11560 ft | 319 kts | 117° |
| 2026-05-05 16:47 | 26.05126 | -81.35320 | 10910 ft | 314 kts | 116° |
| 2026-05-05 16:47 | 26.04185 | -81.33153 | 10280 ft | 308 kts | 116° |
| 2026-05-05 16:48 | 26.03271 | -81.31051 | 9636 ft | 303 kts | 116° |
| 2026-05-05 16:48 | 26.02358 | -81.28954 | 8951 ft | 300 kts | 116° |
| 2026-05-05 16:48 | 26.01457 | -81.26883 | 8260 ft | 296 kts | 116° |
| 2026-05-05 16:48 | 26.00565 | -81.24833 | 7596 ft | 293 kts | 116° |
| 2026-05-05 16:49 | 25.99682 | -81.22809 | 6972 ft | 290 kts | 116° |
| 2026-05-05 16:49 | 25.98807 | -81.20806 | 6361 ft | 286 kts | 117° |
| 2026-05-05 16:49 | 25.97939 | -81.18822 | 5683 ft | 283 kts | 116° |
| 2026-05-05 16:49 | 25.97082 | -81.16866 | 5128 ft | 281 kts | 116° |
| 2026-05-05 16:50 | 25.96221 | -81.14905 | 5360 ft | 283 kts | 116° |
| 2026-05-05 16:50 | 25.95365 | -81.12955 | 6320 ft | 286 kts | 117° |
| 2026-05-05 16:50 | 25.94479 | -81.10933 | 6881 ft | 294 kts | 117° |
| 2026-05-05 16:50 | 25.93580 | -81.08886 | 7077 ft | 295 kts | 117° |
| 2026-05-05 16:51 | 25.92683 | -81.06839 | 7132 ft | 295 kts | 117° |
| 2026-05-05 16:51 | 25.91789 | -81.04792 | 7139 ft | 294 kts | 117° |
| 2026-05-05 16:51 | 25.90907 | -81.02738 | 7144 ft | 296 kts | 115° |
| 2026-05-05 16:51 | 25.90078 | -81.00653 | 7139 ft | 294 kts | 114° |
| 2026-05-05 16:52 | 25.89283 | -80.98560 | 7139 ft | 295 kts | 113° |
| 2026-05-05 16:52 | 25.88506 | -80.96487 | 7139 ft | 294 kts | 113° |
| 2026-05-05 16:52 | 25.87715 | -80.94387 | 7139 ft | 295 kts | 113° |
| 2026-05-05 16:52 | 25.86923 | -80.92290 | 7140 ft | 294 kts | 114° |
| 2026-05-05 16:53 | 25.86127 | -80.90199 | 7138 ft | 294 kts | 114° |
| 2026-05-05 16:53 | 25.85331 | -80.88115 | 7137 ft | 293 kts | 114° |
| 2026-05-05 16:53 | 25.84531 | -80.86029 | 7137 ft | 293 kts | 114° |
| 2026-05-05 16:53 | 25.83733 | -80.83948 | 7137 ft | 294 kts | 114° |
| 2026-05-05 16:54 | 25.82933 | -80.81861 | 7132 ft | 293 kts | 114° |
| 2026-05-05 16:54 | 25.82143 | -80.79808 | 7133 ft | 294 kts | 114° |
| 2026-05-05 16:54 | 25.81340 | -80.77722 | 7133 ft | 294 kts | 114° |
| 2026-05-05 16:54 | 25.80533 | -80.75636 | 7134 ft | 294 kts | 114° |
| 2026-05-05 16:55 | 25.79724 | -80.73555 | 7134 ft | 294 kts | 114° |
| 2026-05-05 16:55 | 25.78917 | -80.71474 | 7134 ft | 294 kts | 114° |
| 2026-05-05 16:55 | 25.78118 | -80.69400 | 6893 ft | 291 kts | 114° |
| 2026-05-05 16:55 | 25.77396 | -80.67309 | 6650 ft | 288 kts | 105° |
| 2026-05-05 16:56 | 25.77154 | -80.65150 | 6530 ft | 278 kts | 89° |
| 2026-05-05 16:56 | 25.77250 | -80.63084 | 6411 ft | 263 kts | 86° |
| 2026-05-05 16:56 | 25.77341 | -80.61160 | 6291 ft | 237 kts | 87° |
| 2026-05-05 16:56 | 25.77414 | -80.59436 | 6197 ft | 209 kts | 87° |
| 2026-05-05 16:57 | 25.77477 | -80.57953 | 6068 ft | 175 kts | 87° |
| 2026-05-05 16:57 | 25.77531 | -80.56706 | 5884 ft | 151 kts | 87° |
| 2026-05-05 16:57 | 25.77580 | -80.55584 | 5611 ft | 142 kts | 86° |
| 2026-05-05 16:57 | 25.77628 | -80.54479 | 5135 ft | 149 kts | 86° |
| 2026-05-05 16:58 | 25.77680 | -80.53295 | 4482 ft | 160 kts | 86° |
| 2026-05-05 16:58 | 25.77733 | -80.52059 | 3864 ft | 161 kts | 86° |
| 2026-05-05 16:58 | 25.77786 | -80.50828 | 3316 ft | 158 kts | 85° |
| 2026-05-05 16:58 | 25.77838 | -80.49628 | 3154 ft | 156 kts | 84° |
| 2026-05-05 16:59 | 25.77890 | -80.48418 | 3152 ft | 158 kts | 84° |
| 2026-05-05 16:59 | 25.77943 | -80.47194 | 3156 ft | 159 kts | 84° |
| 2026-05-05 16:59 | 25.77995 | -80.45970 | 3152 ft | 159 kts | 85° |
| 2026-05-05 16:59 | 25.78048 | -80.44746 | 3155 ft | 159 kts | 86° |
| 2026-05-05 17:00 | 25.78084 | -80.43512 | 2971 ft | 160 kts | 86° |
| 2026-05-05 17:00 | 25.78111 | -80.42285 | 2735 ft | 158 kts | 85° |
| 2026-05-05 17:00 | 25.78119 | -80.41089 | 2416 ft | 156 kts | 89° |
| 2026-05-05 17:00 | 25.78176 | -80.39898 | 2030 ft | 153 kts | 80° |
| 2026-05-05 17:01 | 25.78329 | -80.38738 | 1654 ft | 152 kts | 79° |
| 2026-05-05 17:01 | 25.78442 | -80.37572 | 1233 ft | 152 kts | 82° |
| 2026-05-05 17:01 | 25.78516 | -80.36403 | 835 ft | 151 kts | 86° |
| 2026-05-05 17:01 | 25.78505 | -80.35231 | 649 ft | 150 kts | 90° |
| 2026-05-05 17:02 | 25.78517 | -80.34075 | 556 ft | 149 kts | 89° |
| 2026-05-05 17:02 | 25.78573 | -80.32934 | 463 ft | 147 kts | 86° |
| 2026-05-05 17:02 | 25.78595 | -80.31839 | 206 ft | 137 kts | 92° |
| 2026-05-05 17:02 | 25.78374 | -80.30936 | 100 ft | 127 kts | 136° |
| 2026-05-05 17:03 | 25.77373 | -80.30534 | 288 ft | 178 kts | 163° |
| 2026-05-05 17:03 | 25.76444 | -80.29718 | 940 ft | 176 kts | 116° |
| 2026-05-05 17:03 | 25.76374 | -80.28361 | 1368 ft | 192 kts | 80° |
| 2026-05-05 17:03 | 25.76589 | -80.26944 | 1420 ft | 167 kts | 80° |
| 2026-05-05 17:04 | 25.76740 | -80.25831 | 1380 ft | 131 kts | 82° |
| 2026-05-05 17:04 | 25.76810 | -80.24755 | 1317 ft | 168 kts | 84° |
| 2026-05-05 17:04 | 25.76866 | -80.23367 | 1624 ft | 193 kts | 85° |
| 2026-05-05 17:04 | 25.76933 | -80.21975 | 1641 ft | 157 kts | 84° |
| 2026-05-05 17:05 | 25.77418 | -80.21200 | 1585 ft | 120 kts | 7° |
| 2026-05-05 17:05 | 25.78146 | -80.21723 | 1227 ft | 147 kts | 294° |